TimeCST,TemperatureF,Dew PointF,Humidity,Sea Level PressureIn,VisibilityMPH,Wind Direction,Wind SpeedMPH,Gust SpeedMPH,PrecipitationIn,Events,Conditions,WindDirDegrees,DateUTC
12:53 AM,37.9,35.1,89,30.01,10.0,WNW,9.2,-,N/A,,Overcast,300,2012-12-29 06:53:00
1:29 AM,37.4,35.6,93,30.03,10.0,Variable,5.8,17.3,N/A,,Overcast,0,2012-12-29 07:29:00
1:53 AM,37.9,35.1,89,30.04,10.0,WNW,5.8,-,N/A,,Overcast,300,2012-12-29 07:53:00
2:53 AM,37.9,35.1,89,30.06,10.0,WNW,4.6,-,N/A,,Overcast,290,2012-12-29 08:53:00
3:11 AM,37.4,33.8,87,30.06,10.0,WNW,8.1,-,N/A,,Overcast,300,2012-12-29 09:11:00
3:36 AM,37.4,33.8,87,30.08,10.0,Variable,5.8,16.1,N/A,,Overcast,0,2012-12-29 09:36:00
3:53 AM,37.0,33.1,86,30.09,10.0,NW,6.9,-,N/A,,Overcast,310,2012-12-29 09:53:00
4:14 AM,37.4,33.8,87,30.10,10.0,WNW,5.8,-,N/A,,Scattered Clouds,300,2012-12-29 10:14:00
4:53 AM,36.0,32.0,86,30.12,9.0,Variable,4.6,-,N/A,,Clear,0,2012-12-29 10:53:00
5:53 AM,35.1,30.0,82,30.13,9.0,NW,4.6,-,N/A,,Clear,310,2012-12-29 11:53:00
6:44 AM,35.6,30.2,81,30.14,9.0,Variable,3.5,-,N/A,,Overcast,0,2012-12-29 12:44:00
6:53 AM,36.0,30.9,82,30.15,9.0,WNW,3.5,-,N/A,,Overcast,290,2012-12-29 12:53:00
7:10 AM,37.4,33.8,87,30.15,8.0,Variable,4.6,-,N/A,,Overcast,0,2012-12-29 13:10:00
7:37 AM,37.4,32.0,81,30.17,8.0,WNW,8.1,-,N/A,,Overcast,290,2012-12-29 13:37:00
7:53 AM,37.0,30.0,76,30.18,7.0,WNW,11.5,17.3,N/A,,Overcast,290,2012-12-29 13:53:00
8:01 AM,35.6,30.2,81,30.18,8.0,WNW,10.4,19.6,N/A,,Overcast,300,2012-12-29 14:01:00
8:53 AM,36.0,27.0,70,30.21,9.0,WNW,8.1,19.6,N/A,,Overcast,290,2012-12-29 14:53:00
9:53 AM,37.0,27.0,67,30.24,9.0,WNW,11.5,24.2,N/A,,Overcast,290,2012-12-29 15:53:00
10:53 AM,39.0,28.9,67,30.25,10.0,NW,10.4,18.4,N/A,,Mostly Cloudy,310,2012-12-29 16:53:00
11:02 AM,37.4,26.6,65,30.25,9.0,WNW,10.4,19.6,N/A,,Scattered Clouds,300,2012-12-29 17:02:00
11:22 AM,39.2,28.4,65,30.24,10.0,WNW,11.5,19.6,N/A,,Mostly Cloudy,290,2012-12-29 17:22:00
11:31 AM,37.4,26.6,65,30.25,10.0,WNW,9.2,19.6,N/A,,Scattered Clouds,300,2012-12-29 17:31:00
11:53 AM,37.0,27.0,67,30.25,9.0,Variable,4.6,16.1,N/A,,Scattered Clouds,0,2012-12-29 17:53:00
12:04 PM,37.4,26.6,65,30.24,9.0,NW,10.4,17.3,N/A,,Mostly Cloudy,310,2012-12-29 18:04:00
12:16 PM,37.4,26.6,65,30.24,9.0,WNW,11.5,16.1,N/A,,Mostly Cloudy,300,2012-12-29 18:16:00
12:25 PM,37.4,28.4,70,30.24,10.0,NW,11.5,19.6,N/A,,Mostly Cloudy,310,2012-12-29 18:25:00
12:53 PM,37.0,27.0,67,30.25,9.0,NW,9.2,17.3,N/A,,Overcast,310,2012-12-29 18:53:00
1:35 PM,37.4,26.6,65,30.25,9.0,NW,9.2,17.3,N/A,,Overcast,320,2012-12-29 19:35:00
1:53 PM,37.0,26.1,65,30.26,10.0,NW,9.2,17.3,N/A,,Overcast,310,2012-12-29 19:53:00
2:02 PM,37.4,26.6,65,30.26,10.0,WNW,10.4,-,N/A,,Overcast,300,2012-12-29 20:02:00
2:53 PM,39.9,24.1,53,30.28,10.0,NW,13.8,21.9,N/A,,Overcast,320,2012-12-29 20:53:00
3:53 PM,37.0,24.1,59,30.32,10.0,WNW,9.2,-,N/A,,Overcast,300,2012-12-29 21:53:00
4:53 PM,35.1,24.1,64,30.35,10.0,NNW,8.1,-,N/A,,Overcast,340,2012-12-29 22:53:00
5:53 PM,33.1,21.9,64,30.37,10.0,NNW,5.8,-,N/A,,Clear,330,2012-12-29 23:53:00
6:53 PM,30.9,21.9,69,30.40,10.0,NNW,3.5,-,N/A,,Clear,340,2012-12-30 00:53:00
7:53 PM,27.0,23.0,85,30.42,10.0,Calm,Calm,-,N/A,,Clear,0,2012-12-30 01:53:00
8:53 PM,28.0,25.0,88,30.44,9.0,Calm,Calm,-,N/A,,Clear,0,2012-12-30 02:53:00
9:53 PM,25.0,23.0,92,30.45,8.0,Calm,Calm,-,N/A,,Clear,0,2012-12-30 03:53:00
10:53 PM,24.1,21.9,91,30.46,7.0,Calm,Calm,-,N/A,,Clear,0,2012-12-30 04:53:00
11:53 PM,24.8,21.2,86,30.44,8.0,Calm,Calm,-,N/A,,Clear,0,2012-12-30 05:53:00